Hinton, Virginia
Current Conditions -  °F | °C
As of 2:15 PM on Saturday 25 Oct 2014 (Local Time) from KVBW Reporting Station
Clear Clear  
Wind Chill: 20°   Ceiling: Unl
Heat Index: 20°   Visibility: 10mi
Dew Point:   Wind: 9mph
Humidity: 41%   Direction: 140°SE
Pressure: 29.87"   Gusts: NA
Location:  38.47°N, 78.97°W
Report Text: KVBW 251815Z AUTO 14008KT 10SM CLR 20/07 A2987 RMK AO2 T02030065
Loading
Personal Weather Stations






























Interactive Weather Map
Tropical Storm Tracking
New forecast layout! Learn more

10-Day Weather Forecast

Advertisements
Track Severe Weather on mobile